sensor_id;sensor_type;location;lat;lon;timestamp;pressure;altitude;pressure_sealevel;temperature;humidity
16544;BME280;8384;47.996;7.786;2023-06-22T00:00:54;98731.59;;;19.92;99.56
16544;BME280;8384;47.996;7.786;2023-06-22T00:03:20;98732.75;;;20.00;99.20
16544;BME280;8384;47.996;7.786;2023-06-22T00:05:47;98734.34;;;19.84;100.00
16544;BME280;8384;47.996;7.786;2023-06-22T00:08:13;98722.44;;;19.83;100.00
16544;BME280;8384;47.996;7.786;2023-06-22T00:10:38;98725.25;;;19.92;99.93
16544;BME280;8384;47.996;7.786;2023-06-22T00:13:05;98733.59;;;20.10;96.50
16544;BME280;8384;47.996;7.786;2023-06-22T00:15:31;98724.94;;;20.02;96.04
16544;BME280;8384;47.996;7.786;2023-06-22T00:17:56;98721.63;;;19.83;97.60
16544;BME280;8384;47.996;7.786;2023-06-22T00:20:22;98704.31;;;19.77;97.57
16544;BME280;8384;47.996;7.786;2023-06-22T00:22:48;98714.13;;;19.83;97.26
16544;BME280;8384;47.996;7.786;2023-06-22T00:25:13;98728.84;;;19.92;97.15
16544;BME280;8384;47.996;7.786;2023-06-22T00:27:38;98718.38;;;19.89;97.27
16544;BME280;8384;47.996;7.786;2023-06-22T00:30:04;98718.56;;;19.93;96.70
16544;BME280;8384;47.996;7.786;2023-06-22T00:32:29;98730.47;;;19.93;96.26
16544;BME280;8384;47.996;7.786;2023-06-22T00:34:55;98727.78;;;19.62;98.85
16544;BME280;8384;47.996;7.786;2023-06-22T00:37:20;98698.31;;;19.26;100.00
16544;BME280;8384;47.996;7.786;2023-06-22T00:39:50;98729.19;;;19.51;99.95
16544;BME280;8384;47.996;7.786;2023-06-22T00:42:15;98734.94;;;19.54;99.45
16544;BME280;8384;47.996;7.786;2023-06-22T00:44:41;98752.84;;;19.48;99.26
16544;BME280;8384;47.996;7.786;2023-06-22T00:47:06;98736.59;;;19.64;98.38
16544;BME280;8384;47.996;7.786;2023-06-22T00:49:32;98733.16;;;19.58;98.76
16544;BME280;8384;47.996;7.786;2023-06-22T00:51:57;98741.78;;;19.66;99.75
16544;BME280;8384;47.996;7.786;2023-06-22T00:54:24;98725.41;;;19.38;100.00
16544;BME280;8384;47.996;7.786;2023-06-22T00:56:54;98727.53;;;19.00;100.00
16544;BME280;8384;47.996;7.786;2023-06-22T00:59:21;98745.47;;;19.03;100.00
16544;BME280;8384;47.996;7.786;2023-06-22T01:01:46;98738.78;;;19.04;100.00
16544;BME280;8384;47.996;7.786;2023-06-22T01:04:12;98754.47;;;18.86;100.00
16544;BME280;8384;47.996;7.786;2023-06-22T01:06:42;98742.78;;;18.66;100.00
16544;BME280;8384;47.996;7.786;2023-06-22T01:09:22;98705.69;;;18.99;100.00
16544;BME280;8384;47.996;7.786;2023-06-22T01:11:54;98718.59;;;19.03;100.00
16544;BME280;8384;47.996;7.786;2023-06-22T01:14:35;98743.06;;;19.10;100.00
16544;BME280;8384;47.996;7.786;2023-06-22T01:17:05;98742.38;;;18.82;100.00
16544;BME280;8384;47.996;7.786;2023-06-22T01:19:46;98704.47;;;18.91;100.00
16544;BME280;8384;47.996;7.786;2023-06-22T01:22:15;98716.88;;;19.16;100.00
16544;BME280;8384;47.996;7.786;2023-06-22T01:24:51;98714.22;;;19.11;100.00
16544;BME280;8384;47.996;7.786;2023-06-22T01:28:02;98712.28;;;18.89;100.00
16544;BME280;8384;47.996;7.786;2023-06-22T01:30:30;98687.75;;;18.65;100.00
16544;BME280;8384;47.996;7.786;2023-06-22T01:32:59;98719.28;;;18.86;100.00
16544;BME280;8384;47.996;7.786;2023-06-22T01:35:26;98700.56;;;18.92;100.00
16544;BME280;8384;47.996;7.786;2023-06-22T01:37:52;98693.97;;;19.02;100.00
16544;BME280;8384;47.996;7.786;2023-06-22T01:40:18;98690.72;;;19.09;100.00
16544;BME280;8384;47.996;7.786;2023-06-22T01:42:44;98685.84;;;19.06;100.00
16544;BME280;8384;47.996;7.786;2023-06-22T01:45:11;98712.09;;;19.08;100.00
16544;BME280;8384;47.996;7.786;2023-06-22T01:47:36;98720.44;;;18.85;100.00
16544;BME280;8384;47.996;7.786;2023-06-22T01:50:02;98675.69;;;18.69;100.00
16544;BME280;8384;47.996;7.786;2023-06-22T01:52:28;98692.28;;;18.92;100.00
16544;BME280;8384;47.996;7.786;2023-06-22T01:54:53;98690.53;;;18.96;100.00
16544;BME280;8384;47.996;7.786;2023-06-22T01:57:19;98683.47;;;18.90;100.00
16544;BME280;8384;47.996;7.786;2023-06-22T02:02:19;98673.16;;;18.50;100.00
16544;BME280;8384;47.996;7.786;2023-06-22T02:05:02;98654.44;;;18.56;100.00
16544;BME280;8384;47.996;7.786;2023-06-22T02:07:33;98671.38;;;18.86;100.00
16544;BME280;8384;47.996;7.786;2023-06-22T02:09:59;98632.22;;;18.70;100.00
16544;BME280;8384;47.996;7.786;2023-06-22T02:12:28;98687.31;;;18.80;100.00
16544;BME280;8384;47.996;7.786;2023-06-22T02:14:54;98677.59;;;18.60;100.00
16544;BME280;8384;47.996;7.786;2023-06-22T02:17:20;98680.75;;;18.67;100.00
16544;BME280;8384;47.996;7.786;2023-06-22T02:19:45;98629.91;;;18.32;100.00
16544;BME280;8384;47.996;7.786;2023-06-22T02:22:11;98667.34;;;18.61;100.00
16544;BME280;8384;47.996;7.786;2023-06-22T02:24:37;98667.94;;;18.49;100.00
16544;BME280;8384;47.996;7.786;2023-06-22T02:27:03;98650.47;;;18.17;100.00
16544;BME280;8384;47.996;7.786;2023-06-22T02:29:29;98665.81;;;18.23;100.00
16544;BME280;8384;47.996;7.786;2023-06-22T02:31:55;98621.41;;;18.05;100.00
16544;BME280;8384;47.996;7.786;2023-06-22T02:34:21;98650.78;;;18.38;100.00
16544;BME280;8384;47.996;7.786;2023-06-22T02:36:48;98647.22;;;18.46;100.00
16544;BME280;8384;47.996;7.786;2023-06-22T02:39:21;98649.06;;;18.51;100.00
16544;BME280;8384;47.996;7.786;2023-06-22T02:41:50;98618.38;;;18.70;100.00
16544;BME280;8384;47.996;7.786;2023-06-22T02:44:16;98636.72;;;18.57;100.00
16544;BME280;8384;47.996;7.786;2023-06-22T02:46:42;98650.03;;;18.55;100.00
16544;BME280;8384;47.996;7.786;2023-06-22T02:49:07;98647.00;;;18.34;100.00
16544;BME280;8384;47.996;7.786;2023-06-22T02:51:33;98632.72;;;18.18;100.00
16544;BME280;8384;47.996;7.786;2023-06-22T02:53:59;98621.78;;;18.12;100.00
16544;BME280;8384;47.996;7.786;2023-06-22T02:56:24;98639.16;;;18.27;100.00
16544;BME280;8384;47.996;7.786;2023-06-22T02:58:50;98651.03;;;18.27;100.00
16544;BME280;8384;47.996;7.786;2023-06-22T03:01:16;98649.00;;;18.19;100.00
16544;BME280;8384;47.996;7.786;2023-06-22T03:03:41;98639.16;;;17.90;100.00
16544;BME280;8384;47.996;7.786;2023-06-22T03:06:06;98627.59;;;17.88;100.00
16544;BME280;8384;47.996;7.786;2023-06-22T03:08:32;98632.94;;;17.84;100.00
16544;BME280;8384;47.996;7.786;2023-06-22T03:10:57;98631.41;;;17.78;100.00
16544;BME280;8384;47.996;7.786;2023-06-22T03:13:23;98614.19;;;17.59;100.00
16544;BME280;8384;47.996;7.786;2023-06-22T03:15:48;98636.97;;;17.64;100.00
16544;BME280;8384;47.996;7.786;2023-06-22T03:18:14;98648.53;;;17.66;100.00
16544;BME280;8384;47.996;7.786;2023-06-22T03:20:40;98610.09;;;17.56;100.00
16544;BME280;8384;47.996;7.786;2023-06-22T03:23:06;98638.06;;;17.77;100.00
16544;BME280;8384;47.996;7.786;2023-06-22T03:25:31;98625.00;;;17.69;100.00
16544;BME280;8384;47.996;7.786;2023-06-22T03:27:56;98609.25;;;17.56;100.00
16544;BME280;8384;47.996;7.786;2023-06-22T03:30:21;98618.19;;;17.52;100.00
16544;BME280;8384;47.996;7.786;2023-06-22T03:32:47;98628.94;;;17.54;100.00
16544;BME280;8384;47.996;7.786;2023-06-22T03:35:12;98624.47;;;17.44;100.00
16544;BME280;8384;47.996;7.786;2023-06-22T03:37:39;98601.94;;;17.37;100.00
16544;BME280;8384;47.996;7.786;2023-06-22T03:40:04;98611.97;;;17.47;100.00
16544;BME280;8384;47.996;7.786;2023-06-22T03:42:30;98626.59;;;17.47;100.00
16544;BME280;8384;47.996;7.786;2023-06-22T03:44:55;98629.31;;;17.61;100.00
16544;BME280;8384;47.996;7.786;2023-06-22T03:47:21;98624.44;;;17.58;100.00
16544;BME280;8384;47.996;7.786;2023-06-22T03:49:46;98627.47;;;17.57;100.00
16544;BME280;8384;47.996;7.786;2023-06-22T03:52:11;98613.94;;;17.32;100.00
16544;BME280;8384;47.996;7.786;2023-06-22T03:54:36;98620.94;;;17.52;100.00
16544;BME280;8384;47.996;7.786;2023-06-22T03:57:02;98625.41;;;17.62;100.00
16544;BME280;8384;47.996;7.786;2023-06-22T03:59:27;98614.47;;;17.71;100.00
16544;BME280;8384;47.996;7.786;2023-06-22T04:01:53;98617.03;;;17.53;100.00
16544;BME280;8384;47.996;7.786;2023-06-22T04:04:18;98604.69;;;17.51;100.00
16544;BME280;8384;47.996;7.786;2023-06-22T04:06:43;98637.88;;;17.74;100.00
16544;BME280;8384;47.996;7.786;2023-06-22T04:09:09;98639.97;;;17.68;100.00
16544;BME280;8384;47.996;7.786;2023-06-22T04:11:34;98615.19;;;17.63;100.00
16544;BME280;8384;47.996;7.786;2023-06-22T04:13:59;98641.84;;;17.81;100.00
16544;BME280;8384;47.996;7.786;2023-06-22T04:16:25;98641.56;;;17.83;100.00
16544;BME280;8384;47.996;7.786;2023-06-22T04:18:50;98642.06;;;17.85;100.00
16544;BME280;8384;47.996;7.786;2023-06-22T04:21:15;98639.97;;;17.91;100.00
16544;BME280;8384;47.996;7.786;2023-06-22T04:23:41;98641.09;;;18.04;100.00
16544;BME280;8384;47.996;7.786;2023-06-22T04:26:06;98639.56;;;18.20;100.00
16544;BME280;8384;47.996;7.786;2023-06-22T04:28:31;98623.66;;;18.03;100.00
16544;BME280;8384;47.996;7.786;2023-06-22T04:31:01;98644.47;;;18.01;100.00
16544;BME280;8384;47.996;7.786;2023-06-22T04:33:26;98638.63;;;18.02;100.00
16544;BME280;8384;47.996;7.786;2023-06-22T04:35:52;98638.09;;;18.14;100.00
16544;BME280;8384;47.996;7.786;2023-06-22T04:38:17;98649.28;;;18.09;100.00
16544;BME280;8384;47.996;7.786;2023-06-22T04:40:42;98654.75;;;18.00;100.00
16544;BME280;8384;47.996;7.786;2023-06-22T04:43:07;98651.78;;;18.19;100.00
16544;BME280;8384;47.996;7.786;2023-06-22T04:45:35;98655.25;;;18.25;100.00
16544;BME280;8384;47.996;7.786;2023-06-22T04:48:03;98619.25;;;18.02;100.00
16544;BME280;8384;47.996;7.786;2023-06-22T04:50:29;98636.19;;;18.23;100.00
16544;BME280;8384;47.996;7.786;2023-06-22T04:52:54;98655.31;;;18.34;100.00
16544;BME280;8384;47.996;7.786;2023-06-22T04:55:19;98649.88;;;18.51;100.00
16544;BME280;8384;47.996;7.786;2023-06-22T04:57:45;98638.94;;;18.46;100.00
16544;BME280;8384;47.996;7.786;2023-06-22T05:00:17;98646.94;;;18.48;100.00
16544;BME280;8384;47.996;7.786;2023-06-22T05:02:45;98628.47;;;18.43;100.00
16544;BME280;8384;47.996;7.786;2023-06-22T05:05:10;98636.03;;;18.51;100.00
16544;BME280;8384;47.996;7.786;2023-06-22T05:07:40;98629.09;;;18.63;100.00
16544;BME280;8384;47.996;7.786;2023-06-22T05:10:09;98631.44;;;18.78;100.00
16544;BME280;8384;47.996;7.786;2023-06-22T05:12:35;98625.81;;;18.92;100.00
16544;BME280;8384;47.996;7.786;2023-06-22T05:15:00;98610.47;;;18.86;100.00
16544;BME280;8384;47.996;7.786;2023-06-22T05:17:26;98621.47;;;19.09;100.00
16544;BME280;8384;47.996;7.786;2023-06-22T05:19:51;98630.81;;;19.22;100.00
16544;BME280;8384;47.996;7.786;2023-06-22T05:22:17;98621.84;;;19.25;100.00
16544;BME280;8384;47.996;7.786;2023-06-22T05:24:43;98633.63;;;19.30;100.00
16544;BME280;8384;47.996;7.786;2023-06-22T05:27:09;98631.66;;;19.40;100.00
16544;BME280;8384;47.996;7.786;2023-06-22T05:29:36;98608.53;;;19.44;100.00
16544;BME280;8384;47.996;7.786;2023-06-22T05:32:01;98602.31;;;19.47;100.00
16544;BME280;8384;47.996;7.786;2023-06-22T05:34:27;98621.41;;;19.49;100.00
16544;BME280;8384;47.996;7.786;2023-06-22T05:36:52;98621.44;;;19.58;100.00
16544;BME280;8384;47.996;7.786;2023-06-22T05:39:17;98627.47;;;19.60;100.00
16544;BME280;8384;47.996;7.786;2023-06-22T05:41:45;98603.50;;;19.64;100.00
16544;BME280;8384;47.996;7.786;2023-06-22T05:44:10;98619.19;;;20.04;100.00
16544;BME280;8384;47.996;7.786;2023-06-22T05:46:36;98617.19;;;20.13;100.00
16544;BME280;8384;47.996;7.786;2023-06-22T05:49:01;98585.66;;;20.35;98.25
16544;BME280;8384;47.996;7.786;2023-06-22T05:51:26;98605.16;;;20.65;95.76
16544;BME280;8384;47.996;7.786;2023-06-22T05:53:51;98610.06;;;20.68;93.89
16544;BME280;8384;47.996;7.786;2023-06-22T05:56:17;98612.22;;;20.54;94.46
16544;BME280;8384;47.996;7.786;2023-06-22T05:58:42;98600.03;;;20.37;94.33
16544;BME280;8384;47.996;7.786;2023-06-22T06:01:08;98623.50;;;20.58;94.50
16544;BME280;8384;47.996;7.786;2023-06-22T06:03:33;98635.78;;;20.48;95.87
16544;BME280;8384;47.996;7.786;2023-06-22T06:05:58;98638.22;;;20.41;96.88
16544;BME280;8384;47.996;7.786;2023-06-22T06:08:24;98638.88;;;20.46;95.55
16544;BME280;8384;47.996;7.786;2023-06-22T06:10:49;98648.31;;;20.54;97.92
16544;BME280;8384;47.996;7.786;2023-06-22T06:13:14;98642.59;;;20.59;97.46
16544;BME280;8384;47.996;7.786;2023-06-22T06:15:40;98662.66;;;20.82;96.89
16544;BME280;8384;47.996;7.786;2023-06-22T06:18:05;98664.13;;;20.71;97.06
16544;BME280;8384;47.996;7.786;2023-06-22T06:20:32;98648.13;;;20.68;97.86
16544;BME280;8384;47.996;7.786;2023-06-22T06:22:58;98658.34;;;21.03;95.83
16544;BME280;8384;47.996;7.786;2023-06-22T06:25:23;98664.97;;;21.19;94.93
16544;BME280;8384;47.996;7.786;2023-06-22T06:27:50;98667.28;;;21.08;96.29
16544;BME280;8384;47.996;7.786;2023-06-22T06:30:17;98674.88;;;20.90;96.61
16544;BME280;8384;47.996;7.786;2023-06-22T06:32:43;98689.22;;;21.01;97.47
16544;BME280;8384;47.996;7.786;2023-06-22T06:35:11;98680.03;;;21.48;93.55
16544;BME280;8384;47.996;7.786;2023-06-22T06:37:38;98694.22;;;21.55;92.47
16544;BME280;8384;47.996;7.786;2023-06-22T06:40:08;98691.13;;;21.18;95.03
16544;BME280;8384;47.996;7.786;2023-06-22T06:42:36;98679.34;;;21.21;94.53
16544;BME280;8384;47.996;7.786;2023-06-22T06:45:03;98711.84;;;21.30;94.20
16544;BME280;8384;47.996;7.786;2023-06-22T06:47:29;98738.72;;;21.55;93.21
16544;BME280;8384;47.996;7.786;2023-06-22T06:49:54;98759.56;;;21.40;93.62
16544;BME280;8384;47.996;7.786;2023-06-22T06:52:19;98772.22;;;21.20;95.35
16544;BME280;8384;47.996;7.786;2023-06-22T06:54:45;98785.28;;;21.28;95.51
16544;BME280;8384;47.996;7.786;2023-06-22T06:57:10;98779.63;;;20.98;98.20
16544;BME280;8384;47.996;7.786;2023-06-22T06:59:38;98746.28;;;20.98;98.87
16544;BME280;8384;47.996;7.786;2023-06-22T07:02:04;98712.88;;;21.16;98.79
16544;BME280;8384;47.996;7.786;2023-06-22T07:04:29;98713.88;;;21.50;97.75
16544;BME280;8384;47.996;7.786;2023-06-22T07:06:55;98735.69;;;21.99;94.12
16544;BME280;8384;47.996;7.786;2023-06-22T07:09:20;98717.97;;;21.83;92.11
16544;BME280;8384;47.996;7.786;2023-06-22T07:11:45;98718.81;;;22.47;90.51
16544;BME280;8384;47.996;7.786;2023-06-22T07:14:10;98719.06;;;23.00;86.99
16544;BME280;8384;47.996;7.786;2023-06-22T07:16:36;98716.06;;;23.05;82.58
16544;BME280;8384;47.996;7.786;2023-06-22T07:19:01;98736.41;;;22.72;84.26
16544;BME280;8384;47.996;7.786;2023-06-22T07:21:26;98738.28;;;22.26;85.86
16544;BME280;8384;47.996;7.786;2023-06-22T07:23:51;98716.97;;;22.51;86.07
16544;BME280;8384;47.996;7.786;2023-06-22T07:26:17;98718.28;;;23.00;85.12
16544;BME280;8384;47.996;7.786;2023-06-22T07:28:42;98738.19;;;22.77;84.23
16544;BME280;8384;47.996;7.786;2023-06-22T07:31:08;98734.47;;;22.30;85.60
16544;BME280;8384;47.996;7.786;2023-06-22T07:33:33;98751.69;;;22.54;87.07
16544;BME280;8384;47.996;7.786;2023-06-22T07:35:59;98771.75;;;22.81;84.22
16544;BME280;8384;47.996;7.786;2023-06-22T07:38:24;98775.34;;;22.81;85.73
16544;BME280;8384;47.996;7.786;2023-06-22T07:40:49;98735.91;;;22.91;86.00
16544;BME280;8384;47.996;7.786;2023-06-22T07:43:16;98711.81;;;23.58;80.72
16544;BME280;8384;47.996;7.786;2023-06-22T07:45:48;98698.81;;;23.37;81.75
16544;BME280;8384;47.996;7.786;2023-06-22T07:48:17;98707.25;;;23.16;82.67
16544;BME280;8384;47.996;7.786;2023-06-22T07:50:42;98718.16;;;23.09;83.15
16544;BME280;8384;47.996;7.786;2023-06-22T07:53:07;98723.47;;;23.47;81.51
16544;BME280;8384;47.996;7.786;2023-06-22T07:55:32;98698.47;;;23.63;77.78
16544;BME280;8384;47.996;7.786;2023-06-22T07:57:58;98699.03;;;23.81;76.60
16544;BME280;8384;47.996;7.786;2023-06-22T08:00:23;98665.75;;;24.30;73.00
16544;BME280;8384;47.996;7.786;2023-06-22T08:02:48;98726.94;;;24.63;72.22
16544;BME280;8384;47.996;7.786;2023-06-22T08:05:14;98729.59;;;24.44;72.08
16544;BME280;8384;47.996;7.786;2023-06-22T08:07:40;98712.94;;;24.47;73.50
16544;BME280;8384;47.996;7.786;2023-06-22T08:10:06;98725.69;;;24.32;73.61
16544;BME280;8384;47.996;7.786;2023-06-22T08:12:31;98711.81;;;24.36;74.67
16544;BME280;8384;47.996;7.786;2023-06-22T08:14:57;98685.81;;;24.92;73.19
16544;BME280;8384;47.996;7.786;2023-06-22T08:17:23;98671.31;;;25.51;69.79
16544;BME280;8384;47.996;7.786;2023-06-22T08:19:49;98685.72;;;26.04;66.33
16544;BME280;8384;47.996;7.786;2023-06-22T08:22:15;98691.63;;;26.39;64.24
16544;BME280;8384;47.996;7.786;2023-06-22T08:24:41;98697.00;;;26.67;61.43
16544;BME280;8384;47.996;7.786;2023-06-22T08:27:10;98705.91;;;26.92;60.59
16544;BME280;8384;47.996;7.786;2023-06-22T08:29:36;98683.53;;;27.19;59.28
16544;BME280;8384;47.996;7.786;2023-06-22T08:32:02;98669.22;;;27.28;58.90
16544;BME280;8384;47.996;7.786;2023-06-22T08:34:27;98670.06;;;26.62;60.54
16544;BME280;8384;47.996;7.786;2023-06-22T08:36:53;98654.09;;;26.43;60.81
16544;BME280;8384;47.996;7.786;2023-06-22T08:39:19;98648.38;;;27.02;58.09
16544;BME280;8384;47.996;7.786;2023-06-22T08:41:48;98622.91;;;27.38;55.58
16544;BME280;8384;47.996;7.786;2023-06-22T08:44:15;98607.66;;;27.96;54.37
16544;BME280;8384;47.996;7.786;2023-06-22T08:46:40;98628.63;;;28.74;52.24
16544;BME280;8384;47.996;7.786;2023-06-22T08:49:06;98624.69;;;28.83;50.58
16544;BME280;8384;47.996;7.786;2023-06-22T08:51:32;98614.13;;;28.31;52.11
16544;BME280;8384;47.996;7.786;2023-06-22T08:53:57;98585.13;;;29.06;51.08
16544;BME280;8384;47.996;7.786;2023-06-22T08:56:23;98593.09;;;29.53;48.56
16544;BME280;8384;47.996;7.786;2023-06-22T08:58:48;98583.44;;;29.57;45.75
16544;BME280;8384;47.996;7.786;2023-06-22T09:01:13;98597.88;;;29.48;47.05
16544;BME280;8384;47.996;7.786;2023-06-22T09:03:40;98592.72;;;29.02;48.44
16544;BME280;8384;47.996;7.786;2023-06-22T09:06:05;98587.00;;;28.50;48.67
16544;BME280;8384;47.996;7.786;2023-06-22T09:08:31;98591.19;;;27.95;50.51
16544;BME280;8384;47.996;7.786;2023-06-22T09:10:57;98564.59;;;28.16;50.65
16544;BME280;8384;47.996;7.786;2023-06-22T09:13:22;98582.09;;;28.81;50.14
16544;BME280;8384;47.996;7.786;2023-06-22T09:15:47;98575.13;;;29.12;47.49
16544;BME280;8384;47.996;7.786;2023-06-22T09:18:13;98558.91;;;28.95;47.80
16544;BME280;8384;47.996;7.786;2023-06-22T09:20:39;98577.41;;;29.55;46.75
16544;BME280;8384;47.996;7.786;2023-06-22T09:23:04;98588.22;;;30.34;44.80
16544;BME280;8384;47.996;7.786;2023-06-22T09:25:29;98571.22;;;30.05;43.95
16544;BME280;8384;47.996;7.786;2023-06-22T09:27:54;98572.91;;;30.32;43.83
16544;BME280;8384;47.996;7.786;2023-06-22T09:30:20;98568.56;;;30.81;41.61
16544;BME280;8384;47.996;7.786;2023-06-22T09:32:45;98553.22;;;30.90;40.93
16544;BME280;8384;47.996;7.786;2023-06-22T09:35:11;98560.84;;;31.25;41.50
16544;BME280;8384;47.996;7.786;2023-06-22T09:37:38;98540.28;;;31.29;41.23
16544;BME280;8384;47.996;7.786;2023-06-22T09:40:04;98550.00;;;31.09;41.58
16544;BME280;8384;47.996;7.786;2023-06-22T09:42:33;98555.66;;;30.66;42.24
16544;BME280;8384;47.996;7.786;2023-06-22T09:44:59;98567.44;;;29.69;44.41
16544;BME280;8384;47.996;7.786;2023-06-22T09:47:24;98578.78;;;29.90;43.63
16544;BME280;8384;47.996;7.786;2023-06-22T09:49:50;98566.78;;;30.01;43.48
16544;BME280;8384;47.996;7.786;2023-06-22T09:52:15;98551.16;;;30.43;42.54
16544;BME280;8384;47.996;7.786;2023-06-22T09:54:41;98517.22;;;29.96;43.34
16544;BME280;8384;47.996;7.786;2023-06-22T09:57:06;98539.03;;;30.17;43.26
16544;BME280;8384;47.996;7.786;2023-06-22T09:59:31;98547.56;;;30.43;43.03
16544;BME280;8384;47.996;7.786;2023-06-22T10:01:57;98548.38;;;30.87;42.09
16544;BME280;8384;47.996;7.786;2023-06-22T10:04:22;98550.78;;;31.03;41.93
16544;BME280;8384;47.996;7.786;2023-06-22T10:06:47;98548.38;;;31.16;41.34
16544;BME280;8384;47.996;7.786;2023-06-22T10:09:12;98537.47;;;31.07;41.15
16544;BME280;8384;47.996;7.786;2023-06-22T10:11:38;98526.63;;;30.73;42.75
16544;BME280;8384;47.996;7.786;2023-06-22T10:14:03;98539.13;;;30.61;43.87
16544;BME280;8384;47.996;7.786;2023-06-22T10:16:32;98534.28;;;30.72;42.93
16544;BME280;8384;47.996;7.786;2023-06-22T10:19:02;98529.03;;;30.42;45.64
16544;BME280;8384;47.996;7.786;2023-06-22T10:21:27;98502.81;;;30.19;45.99
16544;BME280;8384;47.996;7.786;2023-06-22T10:23:54;98518.34;;;29.73;47.00
16544;BME280;8384;47.996;7.786;2023-06-22T10:26:19;98503.75;;;29.46;47.40
16544;BME280;8384;47.996;7.786;2023-06-22T10:28:44;98516.31;;;29.70;46.97
16544;BME280;8384;47.996;7.786;2023-06-22T10:31:09;98539.66;;;29.71;46.95
16544;BME280;8384;47.996;7.786;2023-06-22T10:33:35;98541.66;;;29.67;46.71
16544;BME280;8384;47.996;7.786;2023-06-22T10:36:00;98569.03;;;29.66;47.86
16544;BME280;8384;47.996;7.786;2023-06-22T10:38:25;98582.38;;;29.13;50.10
16544;BME280;8384;47.996;7.786;2023-06-22T10:40:51;98565.78;;;29.01;51.03
16544;BME280;8384;47.996;7.786;2023-06-22T10:43:16;98570.03;;;28.80;51.28
16544;BME280;8384;47.996;7.786;2023-06-22T10:45:41;98607.41;;;28.43;52.93
16544;BME280;8384;47.996;7.786;2023-06-22T10:48:06;98610.13;;;28.36;53.60
16544;BME280;8384;47.996;7.786;2023-06-22T10:50:32;98591.50;;;28.58;53.50
16544;BME280;8384;47.996;7.786;2023-06-22T10:52:57;98606.25;;;28.48;53.77
16544;BME280;8384;47.996;7.786;2023-06-22T10:55:22;98612.59;;;28.79;53.35
16544;BME280;8384;47.996;7.786;2023-06-22T10:57:48;98625.06;;;29.26;51.16
16544;BME280;8384;47.996;7.786;2023-06-22T11:00:14;98586.50;;;30.01;49.33
16544;BME280;8384;47.996;7.786;2023-06-22T11:02:40;98591.50;;;31.02;46.70
16544;BME280;8384;47.996;7.786;2023-06-22T11:05:06;98603.22;;;31.15;45.42
16544;BME280;8384;47.996;7.786;2023-06-22T11:07:31;98591.88;;;31.51;44.76
16544;BME280;8384;47.996;7.786;2023-06-22T11:09:58;98605.63;;;30.91;46.76
16544;BME280;8384;47.996;7.786;2023-06-22T11:12:23;98584.69;;;29.67;49.17
16544;BME280;8384;47.996;7.786;2023-06-22T11:14:48;98588.50;;;29.97;47.97
16544;BME280;8384;47.996;7.786;2023-06-22T11:17:16;98605.41;;;29.97;48.97
16544;BME280;8384;47.996;7.786;2023-06-22T11:19:42;98617.44;;;29.93;48.42
16544;BME280;8384;47.996;7.786;2023-06-22T11:22:07;98643.53;;;29.80;48.88
16544;BME280;8384;47.996;7.786;2023-06-22T11:24:32;98652.00;;;29.83;48.88
16544;BME280;8384;47.996;7.786;2023-06-22T11:26:57;98650.16;;;30.16;48.96
16544;BME280;8384;47.996;7.786;2023-06-22T11:29:23;98639.25;;;30.04;48.63
16544;BME280;8384;47.996;7.786;2023-06-22T11:31:48;98626.69;;;29.90;49.19
16544;BME280;8384;47.996;7.786;2023-06-22T11:34:13;98643.59;;;29.31;51.26
16544;BME280;8384;47.996;7.786;2023-06-22T11:36:39;98637.72;;;29.47;51.11
16544;BME280;8384;47.996;7.786;2023-06-22T11:39:04;98628.66;;;29.23;51.53
16544;BME280;8384;47.996;7.786;2023-06-22T11:41:30;98652.75;;;29.21;53.16
16544;BME280;8384;47.996;7.786;2023-06-22T11:43:55;98617.53;;;29.38;52.25
16544;BME280;8384;47.996;7.786;2023-06-22T11:46:20;98614.03;;;29.03;53.97
16544;BME280;8384;47.996;7.786;2023-06-22T11:48:46;98604.56;;;28.77;54.55
16544;BME280;8384;47.996;7.786;2023-06-22T11:51:11;98598.31;;;28.98;54.13
16544;BME280;8384;47.996;7.786;2023-06-22T11:53:36;98592.34;;;29.63;51.99
16544;BME280;8384;47.996;7.786;2023-06-22T11:56:01;98584.56;;;30.30;50.03
16544;BME280;8384;47.996;7.786;2023-06-22T11:58:27;98589.50;;;30.88;48.30
16544;BME280;8384;47.996;7.786;2023-06-22T12:00:53;98590.72;;;31.23;47.33
16544;BME280;8384;47.996;7.786;2023-06-22T12:03:19;98598.38;;;30.90;48.01
16544;BME280;8384;47.996;7.786;2023-06-22T12:05:44;98593.47;;;30.43;49.42
16544;BME280;8384;47.996;7.786;2023-06-22T12:08:09;98595.06;;;30.37;49.72
16544;BME280;8384;47.996;7.786;2023-06-22T12:10:35;98603.81;;;30.03;50.74
16544;BME280;8384;47.996;7.786;2023-06-22T12:13:00;98616.69;;;30.00;50.11
16544;BME280;8384;47.996;7.786;2023-06-22T12:15:26;98626.53;;;29.61;53.30
16544;BME280;8384;47.996;7.786;2023-06-22T12:17:52;98640.38;;;28.84;57.01
16544;BME280;8384;47.996;7.786;2023-06-22T12:20:17;98653.34;;;28.58;57.61
16544;BME280;8384;47.996;7.786;2023-06-22T12:22:43;98663.38;;;28.21;59.02
16544;BME280;8384;47.996;7.786;2023-06-22T12:25:08;98664.88;;;28.11;59.81
16544;BME280;8384;47.996;7.786;2023-06-22T12:27:35;98659.84;;;28.28;58.88
16544;BME280;8384;47.996;7.786;2023-06-22T12:30:00;98638.88;;;28.18;59.37
16544;BME280;8384;47.996;7.786;2023-06-22T12:32:25;98639.34;;;27.63;60.51
16544;BME280;8384;47.996;7.786;2023-06-22T12:34:51;98665.66;;;27.54;61.59
16544;BME280;8384;47.996;7.786;2023-06-22T12:37:16;98645.41;;;27.42;60.53
16544;BME280;8384;47.996;7.786;2023-06-22T12:39:43;98663.03;;;27.42;61.11
16544;BME280;8384;47.996;7.786;2023-06-22T12:42:08;98663.56;;;27.48;60.25
16544;BME280;8384;47.996;7.786;2023-06-22T12:44:35;98659.50;;;27.72;59.41
16544;BME280;8384;47.996;7.786;2023-06-22T12:47:00;98668.28;;;27.97;58.40
16544;BME280;8384;47.996;7.786;2023-06-22T12:49:25;98668.72;;;27.99;54.99
16544;BME280;8384;47.996;7.786;2023-06-22T12:51:51;98674.09;;;28.12;54.46
16544;BME280;8384;47.996;7.786;2023-06-22T12:54:16;98681.94;;;27.99;53.36
16544;BME280;8384;47.996;7.786;2023-06-22T12:56:41;98680.28;;;27.94;53.27
16544;BME280;8384;47.996;7.786;2023-06-22T12:59:09;98675.91;;;28.27;49.77
16544;BME280;8384;47.996;7.786;2023-06-22T13:01:34;98674.84;;;28.39;49.13
16544;BME280;8384;47.996;7.786;2023-06-22T13:03:59;98663.69;;;28.47;49.31